createdAt,value
2023-04-27T00:00:51.750Z,99328.68
2023-04-27T00:01:55.236Z,99331.34
2023-04-27T00:02:59.123Z,99329.92
2023-04-27T00:04:04.067Z,99334.84
2023-04-27T00:05:08.583Z,99331.86
2023-04-27T00:06:13.621Z,99339.94
2023-04-27T00:07:16.761Z,99333.61
2023-04-27T00:08:20.360Z,99338.52
2023-04-27T00:09:23.975Z,99344.63
2023-04-27T00:10:26.393Z,99345.94
2023-04-27T00:11:30.253Z,99342.14
2023-04-27T00:12:34.064Z,99338.92
2023-04-27T00:13:37.682Z,99343.27
2023-04-27T00:14:41.705Z,99349.44
2023-04-27T00:15:46.090Z,99339.77
2023-04-27T00:16:51.392Z,99343.45
2023-04-27T00:17:55.408Z,99340.11
2023-04-27T00:18:58.960Z,99336.39
2023-04-27T00:20:03.198Z,99342.09
2023-04-27T00:21:06.620Z,99341.25
2023-04-27T00:22:10.816Z,99342.94
2023-04-27T00:23:15.434Z,99347.03
2023-04-27T00:24:19.399Z,99344.38
2023-04-27T00:25:23.746Z,99357.28
2023-04-27T00:26:27.566Z,99358.25
2023-04-27T00:27:30.857Z,99364.92
2023-04-27T00:28:34.476Z,99367.83
2023-04-27T00:29:37.875Z,99370.80
2023-04-27T00:30:41.691Z,99371.33
2023-04-27T00:31:45.346Z,99372.42
2023-04-27T00:32:49.991Z,99379.80
2023-04-27T00:33:56.543Z,99375.20
2023-04-27T00:34:59.151Z,99379.73
2023-04-27T00:36:02.977Z,99381.31
2023-04-27T00:37:06.795Z,99378.88
2023-04-27T00:38:10.299Z,99378.36
2023-04-27T00:39:13.365Z,99383.88
2023-04-27T00:40:16.049Z,99372.89
2023-04-27T00:41:19.563Z,99377.56
2023-04-27T00:42:24.637Z,99369.82
2023-04-27T00:43:29.066Z,99369.84
2023-04-27T00:44:31.444Z,99374.66
2023-04-27T00:45:37.853Z,99376.34
2023-04-27T00:46:41.628Z,99377.07
2023-04-27T00:47:45.318Z,99373.52
2023-04-27T00:48:49.523Z,99377.56
2023-04-27T00:49:52.082Z,99378.66
2023-04-27T00:50:56.822Z,99377.56
2023-04-27T00:52:00.679Z,99376.22
2023-04-27T00:53:05.204Z,99373.20
2023-04-27T00:54:09.246Z,99378.76
2023-04-27T00:55:16.570Z,99382.50
2023-04-27T00:56:19.074Z,99382.92
2023-04-27T00:57:23.921Z,99372.58
2023-04-27T00:58:28.834Z,99377.67
2023-04-27T00:59:32.987Z,99367.78
2023-04-27T01:00:37.522Z,99374.91
2023-04-27T01:01:40.325Z,99380.70
2023-04-27T01:02:43.237Z,99378.76
2023-04-27T01:03:48.841Z,99376.02
2023-04-27T01:04:52.574Z,99378.03
2023-04-27T01:05:57.407Z,99377.34
2023-04-27T01:07:00.914Z,99384.92
2023-04-27T01:08:04.526Z,99385.25
2023-04-27T01:09:09.431Z,99383.47
2023-04-27T01:10:13.876Z,99382.16
2023-04-27T01:11:18.482Z,99390.00
2023-04-27T01:12:22.091Z,99382.53
2023-04-27T01:13:25.381Z,99391.67
2023-04-27T01:14:28.684Z,99386.13
2023-04-27T01:15:30.934Z,99392.01
2023-04-27T01:16:34.039Z,99385.97
2023-04-27T01:17:39.980Z,99390.80
2023-04-27T01:18:43.226Z,99384.55
2023-04-27T01:19:46.549Z,99378.88
2023-04-27T01:20:50.446Z,99379.03
2023-04-27T01:21:53.625Z,99384.81
2023-04-27T01:22:58.610Z,99371.30
2023-04-27T01:24:01.723Z,99381.80
2023-04-27T01:25:10.023Z,99383.33
2023-04-27T01:26:15.164Z,99384.80
2023-04-27T01:27:18.577Z,99383.95
2023-04-27T01:28:21.353Z,99384.06
2023-04-27T01:29:24.456Z,99384.67
2023-04-27T01:30:31.712Z,99391.78
2023-04-27T01:31:35.578Z,99389.25
2023-04-27T01:32:39.083Z,99386.48
2023-04-27T01:33:42.568Z,99392.25
2023-04-27T01:34:48.960Z,99392.25
2023-04-27T01:35:53.419Z,99390.44
2023-04-27T01:36:58.307Z,99395.25
2023-04-27T01:38:03.341Z,99392.97
2023-04-27T01:39:09.657Z,99395.98
2023-04-27T01:40:13.839Z,99392.75
2023-04-27T01:41:17.291Z,99391.78
2023-04-27T01:42:21.347Z,99401.20
2023-04-27T01:43:24.450Z,99402.66
2023-04-27T01:44:31.893Z,99410.00
2023-04-27T01:45:35.125Z,99402.77
2023-04-27T01:46:42.801Z,99407.98
2023-04-27T01:47:46.813Z,99402.27
2023-04-27T01:48:50.080Z,99403.23
2023-04-27T01:49:53.488Z,99406.38
2023-04-27T01:50:56.892Z,99403.97
2023-04-27T01:52:00.731Z,99409.77
2023-04-27T01:53:04.218Z,99406.73
2023-04-27T01:54:07.395Z,99408.92
2023-04-27T01:55:12.735Z,99412.91
2023-04-27T01:56:16.188Z,99404.38
2023-04-27T01:57:21.463Z,99411.37
2023-04-27T01:58:24.871Z,99410.14
2023-04-27T01:59:29.325Z,99416.88
2023-04-27T02:00:32.926Z,99411.58
2023-04-27T02:01:37.114Z,99397.26
2023-04-27T02:02:40.117Z,99409.56
2023-04-27T02:03:51.078Z,99411.58
2023-04-27T02:04:54.921Z,99408.20
2023-04-27T02:05:59.252Z,99414.23
2023-04-27T02:07:02.093Z,99418.08
2023-04-27T02:08:09.580Z,99427.73
2023-04-27T02:09:14.435Z,99420.12
2023-04-27T02:10:18.470Z,99423.27
2023-04-27T02:11:22.389Z,99415.92
2023-04-27T02:12:29.991Z,99417.96
2023-04-27T02:13:33.107Z,99426.38
2023-04-27T02:14:35.934Z,99421.92
2023-04-27T02:16:44.244Z,99417.18
2023-04-27T02:17:47.445Z,99417.45
2023-04-27T02:18:50.058Z,99416.84
2023-04-27T02:19:52.526Z,99415.49
2023-04-27T02:20:56.135Z,99416.95
2023-04-27T02:21:59.947Z,99418.03
2023-04-27T02:23:03.872Z,99421.06
2023-04-27T02:24:08.421Z,99420.22
2023-04-27T02:25:13.204Z,99426.70
2023-04-27T02:26:19.108Z,99430.25
2023-04-27T02:27:22.388Z,99425.69
2023-04-27T02:28:27.197Z,99427.14
2023-04-27T02:29:31.809Z,99428.59
2023-04-27T02:30:35.463Z,99434.23
2023-04-27T02:31:38.193Z,99424.36
2023-04-27T02:32:44.710Z,99430.42
2023-04-27T02:33:49.283Z,99428.73
2023-04-27T02:34:53.285Z,99427.05
2023-04-27T02:35:57.676Z,99428.11
2023-04-27T02:37:01.356Z,99423.03
2023-04-27T02:38:06.855Z,99426.50
2023-04-27T02:39:13.534Z,99438.09
2023-04-27T02:40:21.049Z,99432.53
2023-04-27T02:41:24.708Z,99435.92
2023-04-27T02:42:28.150Z,99438.56
2023-04-27T02:43:39.083Z,99433.30
2023-04-27T02:44:44.121Z,99428.73
2023-04-27T02:45:49.463Z,99441.47
2023-04-27T02:46:56.319Z,99441.70
2023-04-27T02:47:59.964Z,99441.70
2023-04-27T02:49:03.347Z,99435.30
2023-04-27T02:50:08.153Z,99441.70
2023-04-27T02:51:12.180Z,99440.59
2023-04-27T02:52:15.584Z,99435.38
2023-04-27T02:53:18.031Z,99440.02
2023-04-27T02:54:21.021Z,99439.90
2023-04-27T02:55:24.306Z,99438.76
2023-04-27T02:56:27.513Z,99436.63
2023-04-27T02:57:30.614Z,99440.27
2023-04-27T02:58:37.737Z,99443.80
2023-04-27T02:59:41.867Z,99441.52
2023-04-27T03:00:46.172Z,99448.73
2023-04-27T03:01:50.488Z,99448.62
2023-04-27T03:02:53.081Z,99443.21
2023-04-27T03:03:56.084Z,99451.34
2023-04-27T03:04:59.917Z,99448.62
2023-04-27T03:06:03.548Z,99450.54
2023-04-27T03:07:07.374Z,99443.14
2023-04-27T03:08:10.672Z,99449.06
2023-04-27T03:09:14.404Z,99454.84
2023-04-27T03:10:19.750Z,99450.38
2023-04-27T03:11:23.261Z,99450.31
2023-04-27T03:12:26.481Z,99453.06
2023-04-27T03:13:30.172Z,99454.16
2023-04-27T03:14:33.486Z,99454.76
2023-04-27T03:15:36.127Z,99464.17
2023-04-27T03:16:41.984Z,99464.17
2023-04-27T03:17:44.214Z,99467.41
2023-04-27T03:18:49.573Z,99466.50
2023-04-27T03:19:53.389Z,99468.63
2023-04-27T03:20:59.807Z,99467.45
2023-04-27T03:22:03.541Z,99472.50
2023-04-27T03:23:07.509Z,99467.78
2023-04-27T03:24:11.242Z,99468.27
2023-04-27T03:25:16.456Z,99467.67
2023-04-27T03:26:20.786Z,99468.91
2023-04-27T03:27:24.194Z,99466.66
2023-04-27T03:28:26.654Z,99473.55
2023-04-27T03:29:32.046Z,99478.75
2023-04-27T03:30:35.751Z,99481.30
2023-04-27T03:31:39.000Z,99485.20
2023-04-27T03:32:42.692Z,99487.00
2023-04-27T03:33:46.789Z,99492.80
2023-04-27T03:34:51.688Z,99494.79
2023-04-27T03:35:56.954Z,99492.14
2023-04-27T03:37:00.217Z,99493.53
2023-04-27T03:38:05.194Z,99495.00
2023-04-27T03:39:08.699Z,99495.44
2023-04-27T03:40:11.588Z,99497.22
2023-04-27T03:41:19.558Z,99492.14
2023-04-27T03:42:23.182Z,99500.73
2023-04-27T03:43:26.888Z,99488.61
2023-04-27T03:44:32.702Z,99489.59
2023-04-27T03:45:36.045Z,99482.12
2023-04-27T03:46:39.764Z,99491.19
2023-04-27T03:47:42.429Z,99485.57
2023-04-27T03:48:46.610Z,99481.66
2023-04-27T03:49:53.729Z,99482.61
2023-04-27T03:50:57.698Z,99483.66
2023-04-27T03:52:01.307Z,99480.38
2023-04-27T03:53:03.861Z,99486.80
2023-04-27T03:54:07.057Z,99486.80
2023-04-27T03:55:11.406Z,99494.25
2023-04-27T03:56:16.383Z,99483.25
2023-04-27T03:57:19.763Z,99491.30
2023-04-27T03:58:23.445Z,99487.80
2023-04-27T03:59:42.212Z,99484.30
2023-04-27T04:00:47.081Z,99497.64
2023-04-27T04:01:51.168Z,99493.44
2023-04-27T04:02:57.809Z,99501.20
2023-04-27T04:04:01.593Z,99502.23
2023-04-27T04:05:05.469Z,99502.09
2023-04-27T04:06:10.688Z,99494.40
2023-04-27T04:07:13.994Z,99498.95
2023-04-27T04:08:17.790Z,99505.83
2023-04-27T04:09:23.714Z,99504.48
2023-04-27T04:10:25.961Z,99496.73
2023-04-27T04:11:30.516Z,99501.56
2023-04-27T04:12:34.839Z,99506.33
2023-04-27T04:13:38.669Z,99504.11
2023-04-27T04:14:43.108Z,99508.02
2023-04-27T04:15:48.708Z,99506.97
2023-04-27T04:16:52.214Z,99505.34
2023-04-27T04:17:57.535Z,99500.89
2023-04-27T04:19:01.554Z,99503.89
2023-04-27T04:20:06.801Z,99499.44
2023-04-27T04:21:13.573Z,99502.84
2023-04-27T04:22:17.153Z,99497.33
2023-04-27T04:23:22.326Z,99503.58
2023-04-27T04:24:28.348Z,99495.63
2023-04-27T04:25:32.369Z,99496.91
2023-04-27T04:26:36.395Z,99503.95
2023-04-27T04:27:39.265Z,99499.94
2023-04-27T04:28:41.693Z,99502.00
2023-04-27T04:29:46.172Z,99503.89
2023-04-27T04:30:50.414Z,99499.34
2023-04-27T04:31:52.788Z,99512.16
2023-04-27T04:32:56.425Z,99498.66
2023-04-27T04:34:02.103Z,99499.30
2023-04-27T04:35:07.782Z,99502.27
2023-04-27T04:36:13.995Z,99513.25
2023-04-27T04:37:20.509Z,99502.23
2023-04-27T04:38:24.665Z,99511.84
2023-04-27T04:39:34.005Z,99505.80
2023-04-27T04:40:40.770Z,99515.89
2023-04-27T04:41:44.267Z,99510.27
2023-04-27T04:42:49.135Z,99510.70
2023-04-27T04:43:53.052Z,99515.68
2023-04-27T04:44:57.431Z,99508.98
2023-04-27T04:46:01.424Z,99505.37
2023-04-27T04:47:06.089Z,99514.06
2023-04-27T04:48:08.663Z,99516.07
2023-04-27T04:49:12.123Z,99518.30
2023-04-27T04:50:16.925Z,99507.07
2023-04-27T04:51:20.209Z,99509.89
2023-04-27T04:52:23.414Z,99516.42
2023-04-27T04:53:27.629Z,99511.73
2023-04-27T04:54:31.853Z,99509.19
2023-04-27T04:55:34.936Z,99505.16
2023-04-27T04:56:38.440Z,99509.19
2023-04-27T04:57:44.871Z,99510.74
2023-04-27T04:58:49.038Z,99510.20
2023-04-27T04:59:52.222Z,99515.86
2023-04-27T05:00:54.563Z,99518.30
2023-04-27T05:01:58.943Z,99518.22
2023-04-27T05:03:01.874Z,99518.93
2023-04-27T05:04:07.963Z,99517.55
2023-04-27T05:05:11.716Z,99528.25
2023-04-27T05:06:15.323Z,99521.47
2023-04-27T05:07:20.876Z,99524.55
2023-04-27T05:08:22.859Z,99521.75
2023-04-27T05:09:26.255Z,99527.27
2023-04-27T05:10:28.715Z,99521.22
2023-04-27T05:11:32.014Z,99519.63
2023-04-27T05:12:35.113Z,99530.39
2023-04-27T05:13:42.449Z,99529.73
2023-04-27T05:14:45.751Z,99535.80
2023-04-27T05:15:48.963Z,99537.35
2023-04-27T05:16:51.941Z,99532.16
2023-04-27T05:17:56.183Z,99533.67
2023-04-27T05:18:59.678Z,99529.13
2023-04-27T05:20:06.032Z,99535.80
2023-04-27T05:21:22.312Z,99530.50
2023-04-27T05:22:25.050Z,99532.91
2023-04-27T05:23:31.277Z,99533.30
2023-04-27T05:24:34.128Z,99530.69
2023-04-27T05:25:40.316Z,99531.42
2023-04-27T05:26:43.213Z,99530.13
2023-04-27T05:27:47.557Z,99525.36
2023-04-27T05:28:51.790Z,99531.11
2023-04-27T05:29:55.857Z,99533.47
2023-04-27T05:30:59.253Z,99537.06
2023-04-27T05:32:03.924Z,99535.58
2023-04-27T05:33:07.582Z,99537.56
2023-04-27T05:34:11.413Z,99544.03
2023-04-27T05:35:16.086Z,99541.59
2023-04-27T05:36:19.780Z,99540.00
2023-04-27T05:37:23.080Z,99541.70
2023-04-27T05:38:25.751Z,99541.80
2023-04-27T05:39:29.148Z,99539.05
2023-04-27T05:40:32.366Z,99542.33
2023-04-27T05:41:38.794Z,99545.05
2023-04-27T05:42:42.023Z,99542.66
2023-04-27T05:43:47.875Z,99546.75
2023-04-27T05:44:51.276Z,99550.77
2023-04-27T05:45:54.714Z,99542.09
2023-04-27T05:47:02.518Z,99549.72
2023-04-27T05:48:08.173Z,99546.92
2023-04-27T05:49:14.111Z,99545.05
2023-04-27T05:50:17.881Z,99551.30
2023-04-27T05:51:22.034Z,99554.38
2023-04-27T05:52:28.253Z,99549.61
2023-04-27T05:53:35.288Z,99554.05
2023-04-27T05:54:38.566Z,99562.22
2023-04-27T05:55:43.213Z,99559.06
2023-04-27T05:56:47.591Z,99555.89
2023-04-27T05:57:57.276Z,99562.03
2023-04-27T05:58:55.216Z,99556.63
2023-04-27T06:00:01.538Z,99564.19
2023-04-27T06:01:05.617Z,99565.76
2023-04-27T06:02:09.738Z,99566.70
2023-04-27T06:03:12.207Z,99571.89
2023-04-27T06:04:16.725Z,99562.60
2023-04-27T06:05:20.239Z,99568.10
2023-04-27T06:06:23.108Z,99569.36
2023-04-27T06:07:26.286Z,99565.52
2023-04-27T06:08:37.127Z,99569.63
2023-04-27T06:09:41.341Z,99570.06
2023-04-27T06:10:44.012Z,99561.69
2023-04-27T06:11:49.460Z,99564.53
2023-04-27T06:12:53.108Z,99558.20
2023-04-27T06:13:55.616Z,99567.31
2023-04-27T06:15:01.930Z,99561.69
2023-04-27T06:16:06.695Z,99568.36
2023-04-27T06:17:10.110Z,99561.58
2023-04-27T06:18:16.604Z,99569.63
2023-04-27T06:19:20.197Z,99573.36
2023-04-27T06:20:23.910Z,99559.59
2023-04-27T06:21:27.197Z,99565.56
2023-04-27T06:22:30.189Z,99559.21
2023-04-27T06:23:33.902Z,99560.16
2023-04-27T06:24:38.659Z,99557.52
2023-04-27T06:25:42.233Z,99556.25
2023-04-27T06:26:45.629Z,99552.41
2023-04-27T06:27:49.073Z,99562.48
2023-04-27T06:28:52.365Z,99558.95
2023-04-27T06:29:54.619Z,99559.14
2023-04-27T06:31:01.062Z,99561.90
2023-04-27T06:32:05.787Z,99565.64
2023-04-27T06:33:08.721Z,99562.34
2023-04-27T06:34:11.927Z,99560.34
2023-04-27T06:35:15.764Z,99556.00
2023-04-27T06:36:18.979Z,99561.05
2023-04-27T06:37:22.383Z,99558.30
2023-04-27T06:38:25.791Z,99563.34
2023-04-27T06:39:34.934Z,99564.09
2023-04-27T06:40:38.351Z,99560.09
2023-04-27T06:41:42.884Z,99563.70
2023-04-27T06:42:47.841Z,99569.70
2023-04-27T06:43:52.750Z,99566.09
2023-04-27T06:44:56.813Z,99564.89
2023-04-27T06:46:01.212Z,99565.31
2023-04-27T06:47:04.584Z,99570.50
2023-04-27T06:48:07.896Z,99566.63
2023-04-27T06:49:11.370Z,99568.47
2023-04-27T06:50:14.960Z,99572.73
2023-04-27T06:51:18.106Z,99574.41
2023-04-27T06:52:21.274Z,99572.63
2023-04-27T06:53:24.678Z,99573.73
2023-04-27T06:54:27.561Z,99574.63
2023-04-27T06:55:32.079Z,99574.00
2023-04-27T06:56:35.388Z,99581.57
2023-04-27T06:57:38.656Z,99578.23
2023-04-27T06:58:43.131Z,99580.27
2023-04-27T06:59:46.437Z,99586.23
2023-04-27T07:00:48.574Z,99582.92
2023-04-27T07:01:53.703Z,99588.15
2023-04-27T07:02:58.414Z,99586.53
2023-04-27T07:04:04.977Z,99587.70
2023-04-27T07:05:09.394Z,99590.47
2023-04-27T07:06:12.803Z,99592.85
2023-04-27T07:07:16.117Z,99595.03
2023-04-27T07:08:20.750Z,99596.95
2023-04-27T07:09:28.090Z,99590.37
2023-04-27T07:10:31.602Z,99594.23
2023-04-27T07:11:34.945Z,99602.72
2023-04-27T07:12:40.266Z,99603.25
2023-04-27T07:13:44.953Z,99601.91
2023-04-27T07:14:51.747Z,99598.63
2023-04-27T07:16:01.093Z,99605.83
2023-04-27T07:17:07.910Z,99604.90
2023-04-27T07:18:12.870Z,99609.43
2023-04-27T07:19:16.425Z,99614.20
2023-04-27T07:20:22.504Z,99606.75
2023-04-27T07:21:26.935Z,99607.44
2023-04-27T07:22:29.590Z,99608.92
2023-04-27T07:23:33.719Z,99619.63
2023-04-27T07:24:37.170Z,99615.28
2023-04-27T07:25:40.227Z,99620.43
2023-04-27T07:26:42.582Z,99625.63
2023-04-27T07:27:46.736Z,99629.39
2023-04-27T07:28:51.711Z,99628.81
2023-04-27T07:29:55.594Z,99628.32
2023-04-27T07:30:58.778Z,99630.34
2023-04-27T07:32:02.759Z,99625.67
2023-04-27T07:33:06.768Z,99626.98
2023-04-27T07:34:11.646Z,99631.02
2023-04-27T07:35:16.145Z,99625.57
2023-04-27T07:36:19.560Z,99631.98
2023-04-27T07:37:28.704Z,99628.00
2023-04-27T07:38:32.723Z,99628.95
2023-04-27T07:39:36.774Z,99625.78
2023-04-27T07:40:39.475Z,99630.51
2023-04-27T07:41:42.703Z,99623.87
2023-04-27T07:42:48.829Z,99627.63
2023-04-27T07:43:53.282Z,99626.73
2023-04-27T07:44:56.781Z,99629.39
2023-04-27T07:46:00.272Z,99628.22
2023-04-27T07:47:03.589Z,99629.80
2023-04-27T07:48:06.967Z,99624.30
2023-04-27T07:49:11.241Z,99629.77
2023-04-27T07:50:17.094Z,99633.77
2023-04-27T07:51:20.421Z,99627.75
2023-04-27T07:52:23.912Z,99635.81
2023-04-27T07:53:29.320Z,99629.02
2023-04-27T07:54:31.965Z,99626.52
2023-04-27T07:55:35.306Z,99628.55
2023-04-27T07:56:40.884Z,99632.83
2023-04-27T07:57:44.267Z,99634.01
2023-04-27T07:58:47.254Z,99637.83
2023-04-27T07:59:50.031Z,99640.21
2023-04-27T08:00:52.374Z,99633.95
2023-04-27T08:02:04.203Z,99636.97
2023-04-27T08:03:00.736Z,99636.77
2023-04-27T08:04:10.580Z,99638.98
2023-04-27T08:05:18.258Z,99632.72
2023-04-27T08:06:25.932Z,99625.20
2023-04-27T08:07:30.236Z,99635.65
2023-04-27T08:08:34.047Z,99631.66
2023-04-27T08:09:38.186Z,99630.11
2023-04-27T08:10:43.528Z,99635.71
2023-04-27T08:11:49.888Z,99640.30
2023-04-27T08:12:54.004Z,99639.20
2023-04-27T08:13:58.472Z,99636.02
2023-04-27T08:15:02.704Z,99639.52
2023-04-27T08:16:07.619Z,99641.20
2023-04-27T08:17:11.607Z,99634.20
2023-04-27T08:18:14.858Z,99633.87
2023-04-27T08:19:17.962Z,99638.41
2023-04-27T08:20:21.998Z,99640.73
2023-04-27T08:21:24.348Z,99642.15
2023-04-27T08:22:30.082Z,99639.76
2023-04-27T08:23:33.657Z,99642.02
2023-04-27T08:24:38.703Z,99645.03
2023-04-27T08:25:41.613Z,99639.72
2023-04-27T08:26:44.496Z,99635.64
2023-04-27T08:27:47.858Z,99640.80
2023-04-27T08:28:58.195Z,99638.38
2023-04-27T08:30:02.134Z,99641.02
2023-04-27T08:31:04.708Z,99641.27
2023-04-27T08:32:09.119Z,99637.39
2023-04-27T08:33:12.891Z,99638.21
2023-04-27T08:34:16.496Z,99629.81
2023-04-27T08:35:19.733Z,99623.97
2023-04-27T08:36:29.812Z,99629.63
2023-04-27T08:37:35.444Z,99630.07
2023-04-27T08:38:48.209Z,99633.75
2023-04-27T08:39:52.038Z,99631.55
2023-04-27T08:40:55.471Z,99630.95
2023-04-27T08:41:58.260Z,99630.77
2023-04-27T08:43:01.424Z,99626.20
2023-04-27T08:44:05.627Z,99628.36
2023-04-27T08:45:10.622Z,99621.75
2023-04-27T08:46:14.786Z,99627.70
2023-04-27T08:47:20.138Z,99629.28
2023-04-27T08:48:21.761Z,99628.37
2023-04-27T08:49:25.154Z,99623.97
2023-04-27T08:50:30.108Z,99621.98
2023-04-27T08:51:34.663Z,99627.40
2023-04-27T08:52:39.423Z,99636.44
2023-04-27T08:53:52.366Z,99627.30
2023-04-27T08:54:56.154Z,99633.05
2023-04-27T08:56:02.793Z,99631.80
2023-04-27T08:57:12.909Z,99625.02
2023-04-27T08:58:16.063Z,99624.88
2023-04-27T08:59:19.288Z,99627.98
2023-04-27T09:00:22.752Z,99629.53
2023-04-27T09:01:29.153Z,99630.14
2023-04-27T09:02:32.613Z,99631.83
2023-04-27T09:03:36.358Z,99629.29
2023-04-27T09:04:42.312Z,99627.70
2023-04-27T09:06:03.695Z,99635.55
2023-04-27T09:07:04.572Z,99633.58
2023-04-27T09:08:07.829Z,99633.72
2023-04-27T09:09:13.724Z,99632.09
2023-04-27T09:10:17.709Z,99640.72
2023-04-27T09:11:36.381Z,99633.09
2023-04-27T09:12:41.304Z,99635.13
2023-04-27T09:13:47.118Z,99626.46
2023-04-27T09:15:00.056Z,99640.44
2023-04-27T09:16:03.824Z,99637.11
2023-04-27T09:17:07.151Z,99639.77
2023-04-27T09:19:29.206Z,99638.56
2023-04-27T09:20:32.804Z,99632.80
2023-04-27T09:21:36.950Z,99637.23
2023-04-27T09:22:45.852Z,99639.18
2023-04-27T09:23:49.000Z,99626.36
2023-04-27T09:24:53.468Z,99626.34
2023-04-27T09:25:57.489Z,99635.78
2023-04-27T09:27:01.300Z,99634.95
2023-04-27T09:28:04.871Z,99632.91
2023-04-27T09:29:11.798Z,99641.33
2023-04-27T09:30:16.612Z,99637.45
2023-04-27T09:31:20.591Z,99643.34
2023-04-27T09:32:24.855Z,99644.22
2023-04-27T09:33:29.379Z,99639.76
2023-04-27T09:34:39.048Z,99637.91
2023-04-27T09:35:42.882Z,99636.73
2023-04-27T09:36:48.271Z,99635.59
2023-04-27T09:37:56.339Z,99635.64
2023-04-27T09:39:01.627Z,99648.60
2023-04-27T09:40:04.527Z,99635.64
2023-04-27T09:41:08.749Z,99637.92
2023-04-27T09:42:11.824Z,99641.72
2023-04-27T09:43:16.609Z,99641.38
2023-04-27T09:44:21.043Z,99641.09
2023-04-27T09:45:26.188Z,99646.88
2023-04-27T09:46:33.585Z,99640.06
2023-04-27T09:47:41.394Z,99641.66
2023-04-27T09:48:46.967Z,99644.60
2023-04-27T09:49:52.824Z,99642.50
2023-04-27T09:50:57.185Z,99646.05
2023-04-27T09:52:00.497Z,99646.83
2023-04-27T09:53:06.616Z,99642.86
2023-04-27T09:54:12.786Z,99651.91
2023-04-27T09:55:17.806Z,99648.67
2023-04-27T09:56:30.552Z,99653.45
2023-04-27T09:57:41.740Z,99647.02
2023-04-27T09:58:48.585Z,99647.41
2023-04-27T10:00:09.707Z,99646.03
2023-04-27T10:01:18.512Z,99650.60
2023-04-27T10:02:35.086Z,99644.56
2023-04-27T10:03:58.465Z,99643.91
2023-04-27T10:05:20.176Z,99650.16
2023-04-27T10:06:37.989Z,99652.13
2023-04-27T10:07:41.163Z,99643.04
2023-04-27T10:08:46.015Z,99646.17
2023-04-27T10:09:52.459Z,99644.97
2023-04-27T10:10:55.863Z,99654.56
2023-04-27T10:12:00.105Z,99649.30
2023-04-27T10:13:03.718Z,99643.69
2023-04-27T10:14:09.329Z,99648.58
2023-04-27T10:15:13.957Z,99646.45
2023-04-27T10:16:17.799Z,99651.47
2023-04-27T10:17:31.777Z,99645.91
2023-04-27T10:18:35.246Z,99650.19
2023-04-27T10:19:38.620Z,99649.97
2023-04-27T10:20:42.154Z,99654.31
2023-04-27T10:23:09.931Z,99650.44
2023-04-27T10:24:13.217Z,99650.19
2023-04-27T10:25:20.538Z,99655.08
2023-04-27T10:26:24.825Z,99660.14
2023-04-27T10:27:28.043Z,99655.31
2023-04-27T10:28:34.190Z,99658.01
2023-04-27T10:29:38.696Z,99653.88
2023-04-27T10:30:45.148Z,99662.95
2023-04-27T10:31:49.235Z,99656.53
2023-04-27T10:32:54.027Z,99664.22
2023-04-27T10:34:12.157Z,99662.52
2023-04-27T10:35:15.540Z,99661.14
2023-04-27T10:36:18.617Z,99666.40
2023-04-27T10:37:22.762Z,99663.48
2023-04-27T10:38:30.810Z,99665.64
2023-04-27T10:39:48.610Z,99660.77
2023-04-27T10:40:49.153Z,99665.64
2023-04-27T10:41:58.068Z,99667.44
2023-04-27T10:43:11.974Z,99664.69
2023-04-27T10:44:17.472Z,99668.47
2023-04-27T10:45:28.501Z,99670.94
2023-04-27T10:46:32.038Z,99670.47
2023-04-27T10:47:43.557Z,99670.01
2023-04-27T10:48:48.169Z,99670.09
2023-04-27T10:49:55.723Z,99674.86
2023-04-27T10:51:01.630Z,99668.47
2023-04-27T10:52:06.951Z,99667.02
2023-04-27T10:53:10.533Z,99675.73
2023-04-27T10:54:14.614Z,99675.13
2023-04-27T10:55:22.754Z,99685.08
2023-04-27T10:56:26.492Z,99672.98
2023-04-27T10:57:29.570Z,99680.83
2023-04-27T10:58:47.540Z,99682.17
2023-04-27T10:59:50.890Z,99685.85
2023-04-27T11:00:54.286Z,99679.98
2023-04-27T11:01:57.968Z,99686.44
2023-04-27T11:03:17.282Z,99688.14
2023-04-27T11:04:21.951Z,99684.56
2023-04-27T11:05:26.184Z,99688.58
2023-04-27T11:06:32.154Z,99692.61
2023-04-27T11:07:35.681Z,99691.95
2023-04-27T11:08:44.133Z,99691.55
2023-04-27T11:09:51.263Z,99689.52
2023-04-27T11:10:56.526Z,99698.87
2023-04-27T11:12:00.165Z,99692.28
2023-04-27T11:13:11.368Z,99683.60
2023-04-27T11:14:19.803Z,99694.08
2023-04-27T11:15:23.020Z,99689.64
2023-04-27T11:16:32.764Z,99696.75
2023-04-27T11:17:39.650Z,99692.17
2023-04-27T11:18:43.645Z,99686.77
2023-04-27T11:19:49.510Z,99685.92
2023-04-27T11:20:57.533Z,99676.66
2023-04-27T11:23:28.974Z,99681.93
2023-04-27T11:24:32.271Z,99694.70
2023-04-27T11:25:35.915Z,99695.56
2023-04-27T11:26:38.254Z,99686.98
2023-04-27T11:27:42.366Z,99690.28
2023-04-27T11:28:46.814Z,99686.03
2023-04-27T11:29:50.353Z,99692.83
2023-04-27T11:31:02.508Z,99698.22
2023-04-27T11:32:07.537Z,99687.00
2023-04-27T11:33:12.011Z,99695.23
2023-04-27T11:34:20.380Z,99697.70
2023-04-27T11:35:35.952Z,99678.28
2023-04-27T11:36:41.533Z,99693.67
2023-04-27T11:37:45.257Z,99691.67
2023-04-27T11:38:49.524Z,99689.23
2023-04-27T11:39:56.060Z,99693.67
2023-04-27T11:41:00.371Z,99684.34
2023-04-27T11:42:21.500Z,99691.02
2023-04-27T11:43:26.689Z,99692.92
2023-04-27T11:44:30.628Z,99695.58
2023-04-27T11:45:37.870Z,99691.03
2023-04-27T11:46:42.494Z,99692.59
2023-04-27T11:47:49.257Z,99692.59
2023-04-27T11:48:54.494Z,99696.42
2023-04-27T11:50:00.930Z,99702.98
2023-04-27T11:51:04.702Z,99709.76
2023-04-27T11:52:08.843Z,99696.73
2023-04-27T11:53:12.664Z,99701.63
2023-04-27T11:54:16.514Z,99698.23
2023-04-27T11:55:23.638Z,99707.31
2023-04-27T11:56:29.230Z,99704.67
2023-04-27T11:57:33.886Z,99701.61
2023-04-27T11:58:38.859Z,99704.98
2023-04-27T11:59:44.445Z,99697.23
2023-04-27T12:00:49.531Z,99700.73
2023-04-27T12:01:55.550Z,99704.86
2023-04-27T12:03:00.912Z,99698.81
2023-04-27T12:04:05.044Z,99700.62
2023-04-27T12:05:10.395Z,99692.91
2023-04-27T12:06:31.735Z,99702.76
2023-04-27T12:07:21.310Z,99697.70
2023-04-27T12:08:26.378Z,99704.27
2023-04-27T12:09:29.901Z,99699.82
2023-04-27T12:10:32.658Z,99696.53
2023-04-27T12:11:36.057Z,99699.48
2023-04-27T12:12:39.355Z,99697.58
2023-04-27T12:13:43.695Z,99693.78
2023-04-27T12:14:47.098Z,99702.27
2023-04-27T12:15:51.016Z,99701.09
2023-04-27T12:16:54.325Z,99710.70
2023-04-27T12:17:57.873Z,99703.39
2023-04-27T12:19:00.169Z,99692.77
2023-04-27T12:20:03.667Z,99702.88
2023-04-27T12:21:08.781Z,99710.81
2023-04-27T12:22:12.663Z,99708.50
2023-04-27T12:23:15.226Z,99702.25
2023-04-27T12:24:18.733Z,99712.10
2023-04-27T12:25:22.154Z,99707.45
2023-04-27T12:26:28.267Z,99708.67
2023-04-27T12:27:31.765Z,99713.27
2023-04-27T12:28:36.419Z,99710.27
2023-04-27T12:29:39.774Z,99699.56
2023-04-27T12:30:42.672Z,99704.62
2023-04-27T12:31:46.517Z,99699.23
2023-04-27T12:32:50.812Z,99704.57
2023-04-27T12:33:54.570Z,99703.15
2023-04-27T12:35:01.233Z,99704.32
2023-04-27T12:36:05.548Z,99700.48
2023-04-27T12:37:08.924Z,99708.93
2023-04-27T12:38:11.307Z,99711.89
2023-04-27T12:39:19.916Z,99708.93
2023-04-27T12:40:25.223Z,99712.32
2023-04-27T12:41:28.710Z,99704.94
2023-04-27T12:42:31.923Z,99704.19
2023-04-27T12:43:37.958Z,99713.20
2023-04-27T12:44:41.946Z,99719.81
2023-04-27T12:45:44.972Z,99718.13
2023-04-27T12:46:51.265Z,99724.38